^^

..:: Storico WU ::..




Lo storico viene creato da WUnderground con i dati che la stazione Meteomincio invia al loro server. L' aggiornamento viene fatto ogni 5 minuti circa, tuttavia possono esserci intervalli pił ampi a causa di errori, interruzioni di servizio o problemi nell' invio tramite FTP.


Storico stazione MeteoMincio
Giorno Sommario per Marzo 25, 2022 Unità:  Inglese    Metrico   Entrambi
Giorno Settimana Mese Anno
  Max: Min: Media:
Temperatura: 71.6 °F 35.6 °F 53.6 °F
Dew Point: 41 °F 28.4 °F 33.8 °F
Umidità: 75% 23% 51%
Velocità vento: 8.1mph 0mph 2.1mph
Raffica: 13mph - -
Direzione- - WSW
Pressione: 30.3 in 30.2 in -
Precipitazioni: 0 in    
 
 
Tabulato Dati per Marzo 25, 2022
Ora Temperatura Dew Point Pressione Direzione Velocità vento Raffica Umidità Intensità pioggia (oraria) Info solare Situazione
00:04 46.4 °F 32 °F 30.3 in Calm   1.2 mph 60% 0 in 0.00 W/m2 unknown
00:09 44.6 °F 32 °F 30.3 in Calm     61% 0 in 0.00 W/m2 unknown
00:14 44.6 °F 32 °F 30.3 in Calm     62% 0 in 0.00 W/m2 unknown
00:19 44.6 °F 32 °F 30.3 in Calm     62% 0 in 0.00 W/m2 unknown
00:24 44.6 °F 32 °F 30.3 in Calm     61% 0 in 0.00 W/m2 unknown
00:29 44.6 °F 32 °F 30.3 in Calm     62% 0 in 0.00 W/m2 unknown
00:34 44.6 °F 32 °F 30.3 in Calm     63% 0 in 0.00 W/m2 unknown
00:39 42.8 °F 32 °F 30.3 in Calm     64% 0 in 0.00 W/m2 unknown
00:44 44.6 °F 32 °F 30.3 in Calm     64% 0 in 0.00 W/m2 unknown
00:49 44.6 °F 32 °F 30.3 in Calm     63% 0 in 0.00 W/m2 unknown
00:54 44.6 °F 32 °F 30.3 in Calm     64% 0 in 0.00 W/m2 unknown
00:59 42.8 °F 32 °F 30.3 in Calm     65% 0 in 0.00 W/m2 unknown
01:04 42.8 °F 32 °F 30.3 in Calm     64% 0 in 0.00 W/m2 unknown
01:09 42.8 °F 32 °F 30.3 in Calm     65% 0 in 0.00 W/m2 unknown
01:14 42.8 °F 32 °F 30.3 in Calm     65% 0 in 0.00 W/m2 unknown
01:19 42.8 °F 32 °F 30.3 in Calm     65% 0 in 0.00 W/m2 unknown
01:24 42.8 °F 32 °F 30.3 in Calm     65% 0 in 0.00 W/m2 unknown
01:29 42.8 °F 32 °F 30.3 in WNW 1.2 mph 2.5 mph 64% 0 in 0.00 W/m2 unknown
01:34 41 °F 30.2 °F 30.3 in WNW 1.2 mph 2.5 mph 65% 0 in 0.00 W/m2 unknown
01:39 42.8 °F 30.2 °F 30.3 in WNW 0.6 mph 1.2 mph 64% 0 in 0.00 W/m2 unknown
01:44 42.8 °F 30.2 °F 30.3 in WNW 1.2 mph 1.2 mph 64% 0 in 0.00 W/m2 unknown
01:49 42.8 °F 30.2 °F 30.3 in WNW 0.6 mph 1.2 mph 64% 0 in 0.00 W/m2 unknown
01:54 42.8 °F 30.2 °F 30.3 in WNW 1.2 mph 2.5 mph 65% 0 in 0.00 W/m2 unknown
01:59 41 °F 30.2 °F 30.3 in WNW 1.2 mph 2.5 mph 66% 0 in 0.00 W/m2 unknown
02:04 41 °F 30.2 °F 30.3 in WNW 1.9 mph 2.5 mph 66% 0 in 0.00 W/m2 unknown
02:09 41 °F 30.2 °F 30.3 in WNW 1.9 mph 2.5 mph 67% 0 in 0.00 W/m2 unknown
02:14 41 °F 30.2 °F 30.3 in WNW 1.2 mph 2.5 mph 67% 0 in 0.00 W/m2 unknown
02:19 39.2 °F 30.2 °F 30.3 in WNW 1.2 mph 1.9 mph 67% 0 in 0.00 W/m2 unknown
02:24 39.2 °F 30.2 °F 30.3 in WNW 1.2 mph 1.2 mph 68% 0 in 0.00 W/m2 unknown
02:29 41 °F 30.2 °F 30.3 in WNW 1.2 mph 1.2 mph 68% 0 in 0.00 W/m2 unknown
02:34 41 °F 30.2 °F 30.3 in WNW 1.2 mph 2.5 mph 67% 0 in 0.00 W/m2 unknown
02:39 39.2 °F 30.2 °F 30.3 in West 1.9 mph 3.7 mph 68% 0 in 0.00 W/m2 unknown
02:44 39.2 °F 30.2 °F 30.3 in WSW 1.9 mph 3.7 mph 68% 0 in 0.00 W/m2 unknown
02:49 41 °F 30.2 °F 30.3 in WSW 1.9 mph 3.1 mph 68% 0 in 0.00 W/m2 unknown
02:54 41 °F 32 °F 30.3 in West 1.9 mph 3.7 mph 68% 0 in 0.00 W/m2 unknown
02:59 41 °F 30.2 °F 30.3 in West 2.5 mph 3.7 mph 67% 0 in 0.00 W/m2 unknown
03:04 41 °F 30.2 °F 30.3 in West 2.5 mph 3.7 mph 67% 0 in 0.00 W/m2 unknown
03:09 39.2 °F 30.2 °F 30.3 in West 2.5 mph 3.7 mph 68% 0 in 0.00 W/m2 unknown
03:14 39.2 °F 30.2 °F 30.3 in West 2.5 mph 3.7 mph 70% 0 in 0.00 W/m2 unknown
03:19 37.4 °F 28.4 °F 30.3 in WSW 3.1 mph 3.7 mph 70% 0 in 0.00 W/m2 unknown
03:24 39.2 °F 30.2 °F 30.3 in SW 3.1 mph 3.7 mph 70% 0 in 0.00 W/m2 unknown
03:29 39.2 °F 30.2 °F 30.3 in SW 1.9 mph 3.7 mph 70% 0 in 0.00 W/m2 unknown
03:34 39.2 °F 30.2 °F 30.3 in SW 1.2 mph 3.1 mph 69% 0 in 0.00 W/m2 unknown
03:39 39.2 °F 30.2 °F 30.3 in SW 0.6 mph 1.9 mph 69% 0 in 0.00 W/m2 unknown
03:44 39.2 °F 30.2 °F 30.3 in SW 0.6 mph 2.5 mph 69% 0 in 0.00 W/m2 unknown
03:49 39.2 °F 30.2 °F 30.3 in WSW 1.2 mph 2.5 mph 69% 0 in 0.00 W/m2 unknown
03:54 39.2 °F 30.2 °F 30.3 in West 1.2 mph 2.5 mph 69% 0 in 0.00 W/m2 unknown
03:59 39.2 °F 30.2 °F 30.3 in WSW 1.2 mph 1.9 mph 69% 0 in 0.00 W/m2 unknown
04:04 39.2 °F 30.2 °F 30.3 in WSW 1.2 mph 1.9 mph 70% 0 in 0.00 W/m2 unknown
04:09 39.2 °F 30.2 °F 30.3 in WSW 1.9 mph 2.5 mph 70% 0 in 0.00 W/m2 unknown
04:14 39.2 °F 30.2 °F 30.3 in Calm   1.9 mph 70% 0 in 0.00 W/m2 unknown
04:19 39.2 °F 30.2 °F 30.3 in WSW 0.6 mph 1.2 mph 70% 0 in 0.00 W/m2 unknown
04:24 39.2 °F 30.2 °F 30.3 in WSW 1.2 mph 2.5 mph 70% 0 in 0.00 W/m2 unknown
04:29 39.2 °F 30.2 °F 30.3 in WSW 1.2 mph 2.5 mph 70% 0 in 0.00 W/m2 unknown
04:34 39.2 °F 30.2 °F 30.3 in Calm   1.9 mph 70% 0 in 0.00 W/m2 unknown
04:39 39.2 °F 30.2 °F 30.3 in WSW 0.6 mph 1.9 mph 71% 0 in 0.00 W/m2 unknown
04:44 39.2 °F 30.2 °F 30.3 in West 2.5 mph 3.7 mph 71% 0 in 0.00 W/m2 unknown
04:49 37.4 °F 28.4 °F 30.3 in West 1.9 mph 3.7 mph 71% 0 in 0.00 W/m2 unknown
04:54 37.4 °F 28.4 °F 30.3 in West 1.9 mph 3.1 mph 72% 0 in 0.00 W/m2 unknown
04:59 37.4 °F 28.4 °F 30.3 in WSW 2.5 mph 3.7 mph 72% 0 in 0.00 W/m2 unknown
05:04 35.6 °F 28.4 °F 30.3 in WSW 3.1 mph 3.7 mph 74% 0 in 0.00 W/m2 unknown
05:09 35.6 °F 28.4 °F 30.3 in WSW 3.1 mph 3.7 mph 74% 0 in 0.00 W/m2 unknown
05:14 35.6 °F 28.4 °F 30.3 in WSW 3.1 mph 3.7 mph 74% 0 in 0.00 W/m2 unknown
05:19 35.6 °F 28.4 °F 30.3 in West 3.7 mph 3.7 mph 74% 0 in 0.00 W/m2 unknown
05:24 35.6 °F 28.4 °F 30.3 in West 3.1 mph 3.7 mph 74% 0 in 0.00 W/m2 unknown
05:29 37.4 °F 28.4 °F 30.3 in West 2.5 mph 3.7 mph 74% 0 in 0.00 W/m2 unknown
05:34 37.4 °F 28.4 °F 30.3 in West 2.5 mph 3.7 mph 73% 0 in 0.00 W/m2 unknown
05:39 37.4 °F 28.4 °F 30.3 in West 1.9 mph 3.1 mph 73% 0 in 0.00 W/m2 unknown
05:44 37.4 °F 28.4 °F 30.3 in West 1.2 mph 2.5 mph 73% 0 in 0.00 W/m2 unknown
05:49 37.4 °F 28.4 °F 30.3 in West 1.2 mph 2.5 mph 74% 0 in 0.00 W/m2 unknown
05:54 37.4 °F 30.2 °F 30.3 in West 1.2 mph 1.9 mph 74% 0 in 0.00 W/m2 unknown
05:59 37.4 °F 30.2 °F 30.3 in WNW 1.2 mph 2.5 mph 74% 0 in 0.00 W/m2 unknown
06:04 37.4 °F 30.2 °F 30.3 in WNW 1.2 mph 2.5 mph 73% 0 in 0.00 W/m2 unknown
06:09 37.4 °F 30.2 °F 30.3 in WNW 1.2 mph 2.5 mph 73% 0 in 0.00 W/m2 unknown
06:14 37.4 °F 30.2 °F 30.3 in WNW 1.2 mph 2.5 mph 73% 0 in 5.00 W/m2 unknown
06:19 37.4 °F 30.2 °F 30.3 in WNW 1.2 mph 1.9 mph 74% 0 in 7.00 W/m2 unknown
06:24 37.4 °F 30.2 °F 30.3 in Calm   1.2 mph 74% 0 in 11.00 W/m2 unknown
06:29 37.4 °F 30.2 °F 30.3 in Calm     75% 0 in 14.00 W/m2 unknown
06:34 37.4 °F 30.2 °F 30.3 in Calm   1.2 mph 75% 0 in 19.00 W/m2 unknown
06:39 37.4 °F 30.2 °F 30.3 in Calm   1.2 mph 74% 0 in 23.00 W/m2 unknown
06:44 37.4 °F 30.2 °F 30.3 in WNW 1.9 mph 3.7 mph 74% 0 in 28.00 W/m2 unknown
06:49 37.4 °F 30.2 °F 30.3 in WNW 1.9 mph 3.7 mph 74% 0 in 37.00 W/m2 unknown
06:54 37.4 °F 30.2 °F 30.3 in NW 2.5 mph 3.7 mph 74% 0 in 44.00 W/m2 unknown
06:59 37.4 °F 30.2 °F 30.3 in WNW 1.9 mph 3.7 mph 74% 0 in 53.00 W/m2 unknown
07:04 37.4 °F 30.2 °F 30.3 in WNW 1.2 mph 3.1 mph 75% 0 in 62.00 W/m2 unknown
07:09 39.2 °F 32 °F 30.3 in NW 1.2 mph 2.5 mph 74% 0 in 72.00 W/m2 unknown
07:14 39.2 °F 32 °F 30.3 in NW 1.2 mph 2.5 mph 73% 0 in 81.00 W/m2 unknown
07:19 41 °F 32 °F 30.3 in NW 0.6 mph 1.9 mph 72% 0 in 91.00 W/m2 unknown
07:24 41 °F 32 °F 30.3 in WNW 0.6 mph 1.2 mph 71% 0 in 105.00 W/m2 unknown
07:29 41 °F 32 °F 30.3 in Calm   1.2 mph 72% 0 in 120.00 W/m2 unknown
07:34 41 °F 32 °F 30.3 in Calm   1.2 mph 71% 0 in 134.00 W/m2 unknown
07:39 42.8 °F 33.8 °F 30.3 in WNW 1.2 mph 2.5 mph 70% 0 in 146.00 W/m2 unknown
07:44 42.8 °F 33.8 °F 30.3 in NW 1.2 mph 2.5 mph 68% 0 in 162.00 W/m2 unknown
07:49 44.6 °F 33.8 °F 30.3 in NW 0.6 mph 2.5 mph 67% 0 in 178.00 W/m2 unknown
07:54 44.6 °F 33.8 °F 30.3 in NNW 1.9 mph 2.5 mph 66% 0 in 192.00 W/m2 unknown
07:59 46.4 °F 33.8 °F 30.3 in WNW 1.9 mph 3.7 mph 65% 0 in 207.00 W/m2 unknown
08:04 46.4 °F 35.6 °F 30.3 in West 1.9 mph 3.7 mph 67% 0 in 220.00 W/m2 unknown
08:09 46.4 °F 35.6 °F 30.3 in West 1.9 mph 3.7 mph 67% 0 in 227.00 W/m2 unknown
08:14 46.4 °F 35.6 °F 30.3 in WNW 2.5 mph 3.7 mph 67% 0 in 181.00 W/m2 unknown
08:19 48.2 °F 35.6 °F 30.3 in WNW 3.1 mph 3.7 mph 65% 0 in 258.00 W/m2 unknown
08:24 48.2 °F 37.4 °F 30.3 in NW 2.5 mph 3.7 mph 64% 0 in 274.00 W/m2 unknown
08:29 50 °F 37.4 °F 30.3 in WNW 2.5 mph 3.7 mph 64% 0 in 288.00 W/m2 unknown
08:34 50 °F 37.4 °F 30.3 in Calm   3.1 mph 64% 0 in 302.00 W/m2 unknown
08:39 50 °F 37.4 °F 30.3 in Calm     61% 0 in 316.00 W/m2 unknown
08:44 51.8 °F 37.4 °F 30.3 in Calm   1.2 mph 60% 0 in 329.00 W/m2 unknown
08:49 51.8 °F 37.4 °F 30.3 in Calm   1.2 mph 59% 0 in 343.00 W/m2 unknown
08:54 53.6 °F 39.2 °F 30.3 in Calm     59% 0 in 357.00 W/m2 unknown
08:59 53.6 °F 39.2 °F 30.3 in Calm     58% 0 in 371.00 W/m2 unknown
09:04 53.6 °F 39.2 °F 30.3 in Calm     56% 0 in 383.00 W/m2 unknown
09:09 55.4 °F 39.2 °F 30.3 in ESE 1.9 mph 3.7 mph 55% 0 in 396.00 W/m2 unknown
09:14 55.4 °F 39.2 °F 30.3 in SSE 1.9 mph 3.7 mph 55% 0 in 410.00 W/m2 unknown
09:19 55.4 °F 39.2 °F 30.3 in SE 2.5 mph 3.7 mph 54% 0 in 420.00 W/m2 unknown
09:24 55.4 °F 39.2 °F 30.3 in South 1.9 mph 3.7 mph 54% 0 in 434.00 W/m2 unknown
09:29 55.4 °F 39.2 °F 30.3 in South 2.5 mph 3.7 mph 54% 0 in 446.00 W/m2 unknown
09:34 57.2 °F 37.4 °F 30.3 in East 2.5 mph 5 mph 51% 0 in 461.00 W/m2 unknown
09:39 57.2 °F 37.4 °F 30.3 in SSE 1.9 mph 5 mph 50% 0 in 473.00 W/m2 unknown
09:44 57.2 °F 37.4 °F 30.3 in SE 3.7 mph 6.2 mph 49% 0 in 483.00 W/m2 unknown
09:49 57.2 °F 39.2 °F 30.3 in ESE 4.3 mph 6.2 mph 49% 0 in 494.00 W/m2 unknown
09:54 57.2 °F 39.2 °F 30.3 in South 1.9 mph 6.2 mph 49% 0 in 503.00 W/m2 unknown
09:59 59 °F 39.2 °F 30.3 in SSE 3.1 mph 3.7 mph 49% 0 in 515.00 W/m2 unknown
10:04 59 °F 39.2 °F 30.3 in SE 3.7 mph 5 mph 49% 0 in 524.00 W/m2 unknown
10:09 59 °F 41 °F 30.3 in ENE 1.9 mph 5 mph 51% 0 in 538.00 W/m2 unknown
10:14 59 °F 39.2 °F 30.3 in South 4.3 mph 6.8 mph 48% 0 in 545.00 W/m2 unknown
10:19 59 °F 39.2 °F 30.3 in SSW 5 mph 6.8 mph 48% 0 in 554.00 W/m2 unknown
10:24 59 °F 39.2 °F 30.3 in SW 3.7 mph 6.8 mph 49% 0 in 564.00 W/m2 unknown
10:29 59 °F 39.2 °F 30.3 in SW 5 mph 6.2 mph 48% 0 in 575.00 W/m2 unknown
10:34 60.8 °F 39.2 °F 30.3 in SSW 5 mph 6.2 mph 47% 0 in 580.00 W/m2 unknown
10:39 60.8 °F 39.2 °F 30.3 in SSE 4.3 mph 6.8 mph 46% 0 in 589.00 W/m2 unknown
10:44 60.8 °F 39.2 °F 30.3 in SSW 4.3 mph 6.8 mph 47% 0 in 598.00 W/m2 unknown
10:49 60.8 °F 39.2 °F 30.3 in SW 4.3 mph 6.8 mph 46% 0 in 605.00 W/m2 unknown
10:54 60.8 °F 39.2 °F 30.3 in SW 3.7 mph 6.2 mph 45% 0 in 613.00 W/m2 unknown
10:59 60.8 °F 39.2 °F 30.3 in SW 3.7 mph 6.2 mph 45% 0 in 621.00 W/m2 unknown
11:04 60.8 °F 39.2 °F 30.3 in SSW 3.1 mph 5 mph 44% 0 in 628.00 W/m2 unknown
11:09 62.6 °F 41 °F 30.3 in WSW 5 mph 6.2 mph 45% 0 in 635.00 W/m2 unknown
11:14 62.6 °F 39.2 °F 30.3 in WNW 5 mph 6.2 mph 43% 0 in 636.00 W/m2 unknown
11:19 64.4 °F 41 °F 30.3 in North 2.5 mph 6.2 mph 44% 0 in 643.00 W/m2 unknown
11:24 64.4 °F 41 °F 30.3 in West 2.5 mph 3.7 mph 43% 0 in 652.00 W/m2 unknown
11:29 64.4 °F 41 °F 30.3 in SSE 2.5 mph 3.7 mph 43% 0 in 654.00 W/m2 unknown
11:34 64.4 °F 41 °F 30.3 in SSW 3.7 mph 5 mph 43% 0 in 663.00 W/m2 unknown
11:39 64.4 °F 39.2 °F 30.3 in NNW 3.1 mph 5 mph 40% 0 in 670.00 W/m2 unknown
11:44 66.2 °F 41 °F 30.3 in NW 4.3 mph 5 mph 41% 0 in 671.00 W/m2 unknown
11:49 66.2 °F 39.2 °F 30.3 in West 3.7 mph 5.6 mph 38% 0 in 680.00 W/m2 unknown
11:54 66.2 °F 37.4 °F 30.3 in NW 4.3 mph 6.2 mph 35% 0 in 687.00 W/m2 unknown
11:59 66.2 °F 39.2 °F 30.3 in NNE 2.5 mph 6.2 mph 37% 0 in 687.00 W/m2 unknown
12:04 66.2 °F 39.2 °F 30.3 in NW 5 mph 8.1 mph 37% 0 in 693.00 W/m2 unknown
12:09 66.2 °F 39.2 °F 30.3 in NW 5 mph 8.1 mph 36% 0 in 696.00 W/m2 unknown
12:14 66.2 °F 37.4 °F 30.3 in NW 5 mph 6.2 mph 33% 0 in 696.00 W/m2 unknown
12:19 66.2 °F 37.4 °F 30.3 in WNW 4.3 mph 6.8 mph 33% 0 in 691.00 W/m2 unknown
12:24 68 °F 37.4 °F 30.3 in West 6.8 mph 9.3 mph 33% 0 in 691.00 W/m2 unknown
12:29 66.2 °F 35.6 °F 30.3 in West 4.3 mph 5.6 mph 32% 0 in 708.00 W/m2 unknown
12:34 66.2 °F 39.2 °F 30.3 in ENE 1.9 mph 6.2 mph 36% 0 in 673.00 W/m2 unknown
12:39 68 °F 37.4 °F 30.3 in NW 2.5 mph 3.7 mph 34% 0 in 657.00 W/m2 unknown
12:44 68 °F 39.2 °F 30.3 in NNW 3.1 mph 6.2 mph 34% 0 in 628.00 W/m2 unknown
12:49 68 °F 37.4 °F 30.3 in WNW 4.3 mph 6.8 mph 31% 0 in 740.00 W/m2 unknown
12:54 68 °F 37.4 °F 30.3 in WNW 4.3 mph 6.8 mph 31% 0 in 661.00 W/m2 unknown
12:59 68 °F 35.6 °F 30.3 in West 5.6 mph 6.8 mph 31% 0 in 752.00 W/m2 unknown
13:04 68 °F 35.6 °F 30.3 in West 5 mph 6.8 mph 30% 0 in 752.00 W/m2 unknown
13:09 68 °F 35.6 °F 30.3 in West 6.2 mph 8.1 mph 29% 0 in 691.00 W/m2 unknown
13:14 68 °F 35.6 °F 30.3 in WSW 6.2 mph 8.1 mph 30% 0 in 691.00 W/m2 unknown
13:19 68 °F 35.6 °F 30.3 in West 5 mph 6.8 mph 30% 0 in 677.00 W/m2 unknown
13:24 69.8 °F 35.6 °F 30.3 in NW 3.7 mph 6.2 mph 29% 0 in 668.00 W/m2 unknown
13:29 69.8 °F 35.6 °F 30.3 in West 3.7 mph 6.2 mph 28% 0 in 566.00 W/m2 unknown
13:34 68 °F 33.8 °F 30.3 in NW 6.8 mph 8.1 mph 27% 0 in 608.00 W/m2 unknown
13:39 68 °F 32 °F 30.3 in WNW 5.6 mph 8.1 mph 26% 0 in 622.00 W/m2 unknown
13:44 69.8 °F 33.8 °F 30.3 in West 4.3 mph 6.8 mph 28% 0 in 719.00 W/m2 unknown
13:49 69.8 °F 35.6 °F 30.3 in NW 5 mph 6.8 mph 29% 0 in 682.00 W/m2 unknown
13:54 69.8 °F 35.6 °F 30.3 in West 5.6 mph 6.8 mph 29% 0 in 587.00 W/m2 unknown
13:59 69.8 °F 35.6 °F 30.3 in West 5 mph 6.8 mph 28% 0 in 647.00 W/m2 unknown
14:04 69.8 °F 33.8 °F 30.3 in West 5.6 mph 8.1 mph 26% 0 in 647.00 W/m2 unknown
14:09 69.8 °F 32 °F 30.3 in WSW 3.7 mph 8.1 mph 26% 0 in 555.00 W/m2 unknown
14:14 69.8 °F 33.8 °F 30.3 in WSW 6.2 mph 8.1 mph 27% 0 in 564.00 W/m2 unknown
14:19 69.8 °F 33.8 °F 30.2 in SW 3.1 mph 8.1 mph 27% 0 in 645.00 W/m2 unknown
14:24 69.8 °F 33.8 °F 30.2 in WSW 5 mph 6.8 mph 27% 0 in 631.00 W/m2 unknown
14:29 69.8 °F 33.8 °F 30.2 in WNW 6.2 mph 8.1 mph 26% 0 in 628.00 W/m2 unknown
14:34 69.8 °F 35.6 °F 30.2 in West 3.1 mph 8.1 mph 27% 0 in 475.00 W/m2 unknown
14:39 69.8 °F 35.6 °F 30.2 in West 1.9 mph 5 mph 27% 0 in 561.00 W/m2 unknown
14:44 69.8 °F 33.8 °F 30.2 in West 6.2 mph 8.1 mph 27% 0 in 557.00 W/m2 unknown
14:49 69.8 °F 33.8 °F 30.2 in WSW 6.2 mph 8.1 mph 26% 0 in 575.00 W/m2 unknown
14:54 69.8 °F 32 °F 30.2 in WSW 6.2 mph 8.1 mph 24% 0 in 564.00 W/m2 unknown
14:59 69.8 °F 33.8 °F 30.2 in WNW 5.6 mph 6.8 mph 26% 0 in 559.00 W/m2 unknown
15:04 69.8 °F 33.8 °F 30.2 in NW 3.1 mph 5.6 mph 26% 0 in 534.00 W/m2 unknown
15:09 69.8 °F 33.8 °F 30.2 in West 5.6 mph 6.8 mph 25% 0 in 533.00 W/m2 unknown
15:14 69.8 °F 33.8 °F 30.2 in WSW 5 mph 6.8 mph 25% 0 in 482.00 W/m2 unknown
15:19 69.8 °F 33.8 °F 30.2 in WSW 5.6 mph 8.1 mph 26% 0 in 515.00 W/m2 unknown
15:24 69.8 °F 33.8 °F 30.2 in WSW 6.2 mph 8.1 mph 26% 0 in 438.00 W/m2 unknown
15:29 69.8 °F 33.8 °F 30.2 in SW 5.6 mph 6.8 mph 26% 0 in 466.00 W/m2 unknown
15:34 71.6 °F 33.8 °F 30.2 in WNW 3.1 mph 6.8 mph 26% 0 in 469.00 W/m2 unknown
15:39 71.6 °F 33.8 °F 30.2 in WNW 5 mph 6.2 mph 25% 0 in 462.00 W/m2 unknown
15:44 69.8 °F 33.8 °F 30.2 in West 3.1 mph 6.2 mph 26% 0 in 454.00 W/m2 unknown
15:49 69.8 °F 35.6 °F 30.2 in WNW 3.7 mph 6.2 mph 27% 0 in 436.00 W/m2 unknown
15:54 69.8 °F 33.8 °F 30.2 in West 4.3 mph 6.2 mph 26% 0 in 420.00 W/m2 unknown
15:59 69.8 °F 33.8 °F 30.2 in WNW 1.9 mph 6.2 mph 26% 0 in 408.00 W/m2 unknown
16:04 69.8 °F 32 °F 30.2 in SSW 1.9 mph 3.7 mph 25% 0 in 387.00 W/m2 unknown
16:09 69.8 °F 32 °F 30.2 in SW 3.1 mph 5 mph 25% 0 in 388.00 W/m2 unknown
16:14 69.8 °F 32 °F 30.2 in WNW 6.2 mph 8.1 mph 24% 0 in 383.00 W/m2 unknown
16:19 69.8 °F 33.8 °F 30.2 in WNW 6.2 mph 8.1 mph 25% 0 in 339.00 W/m2 unknown
16:24 69.8 °F 32 °F 30.2 in WSW 5.6 mph 6.8 mph 24% 0 in 271.00 W/m2 unknown
16:29 69.8 °F 32 °F 30.2 in WSW 5 mph 6.8 mph 24% 0 in 311.00 W/m2 unknown
16:34 69.8 °F 30.2 °F 30.2 in West 2.5 mph 5 mph 23% 0 in 237.00 W/m2 unknown
16:39 69.8 °F 30.2 °F 30.2 in WNW 1.9 mph 3.7 mph 24% 0 in 192.00 W/m2 unknown
16:44 69.8 °F 32 °F 30.2 in WNW 3.7 mph 3.7 mph 25% 0 in 269.00 W/m2 unknown
16:49 69.8 °F 32 °F 30.2 in WNW 3.1 mph 3.7 mph 25% 0 in 269.00 W/m2 unknown
16:54 69.8 °F 32 °F 30.2 in West 2.5 mph 3.7 mph 24% 0 in 251.00 W/m2 unknown
16:59 69.8 °F 32 °F 30.2 in West 3.7 mph 5 mph 25% 0 in 253.00 W/m2 unknown
17:04 69.8 °F 32 °F 30.2 in WSW 2.5 mph 5 mph 25% 0 in 241.00 W/m2 unknown
17:09 69.8 °F 32 °F 30.2 in WSW 1.9 mph 3.7 mph 25% 0 in 179.00 W/m2 unknown
17:14 69.8 °F 30.2 °F 30.2 in West 3.1 mph 3.7 mph 24% 0 in 162.00 W/m2 unknown
17:19 69.8 °F 32 °F 30.2 in West 3.1 mph 3.7 mph 25% 0 in 162.00 W/m2 unknown
17:24 69.8 °F 33.8 °F 30.2 in West 2.5 mph 3.7 mph 26% 0 in 160.00 W/m2 unknown
17:29 69.8 °F 32 °F 30.2 in WSW 2.5 mph 3.7 mph 25% 0 in 137.00 W/m2 unknown
17:34 69.8 °F 32 °F 30.2 in WSW 2.5 mph 3.7 mph 26% 0 in 91.00 W/m2 unknown
17:39 68 °F 32 °F 30.2 in West 2.5 mph 3.7 mph 26% 0 in 47.00 W/m2 unknown
17:44 68 °F 32 °F 30.2 in West 3.1 mph 3.7 mph 26% 0 in 69.00 W/m2 unknown
17:49 68 °F 32 °F 30.2 in West 2.5 mph 3.7 mph 27% 0 in 67.00 W/m2 unknown
17:54 68 °F 32 °F 30.2 in WSW 2.5 mph 3.7 mph 27% 0 in 54.00 W/m2 unknown
17:59 68 °F 33.8 °F 30.2 in WSW 1.9 mph 3.1 mph 30% 0 in 40.00 W/m2 unknown
18:04 66.2 °F 35.6 °F 30.2 in WSW 1.2 mph 2.5 mph 31% 0 in 40.00 W/m2 unknown
18:09 66.2 °F 33.8 °F 30.2 in WSW 1.2 mph 1.9 mph 30% 0 in 19.00 W/m2 unknown
18:14 66.2 °F 33.8 °F 30.2 in WSW 1.2 mph 1.2 mph 32% 0 in 16.00 W/m2 unknown
18:19 64.4 °F 33.8 °F 30.2 in WSW 1.2 mph 1.9 mph 33% 0 in 12.00 W/m2 unknown
18:24 64.4 °F 35.6 °F 30.2 in WSW 1.2 mph 2.5 mph 35% 0 in 12.00 W/m2 unknown
18:29 62.6 °F 35.6 °F 30.2 in WSW 0.6 mph 1.9 mph 35% 0 in 9.00 W/m2 unknown
18:34 62.6 °F 35.6 °F 30.2 in Calm   1.2 mph 36% 0 in 5.00 W/m2 unknown
18:39 62.6 °F 35.6 °F 30.2 in WSW 1.2 mph 1.2 mph 37% 0 in 0.00 W/m2 unknown
18:44 60.8 °F 35.6 °F 30.2 in WSW 1.2 mph 1.2 mph 38% 0 in 0.00 W/m2 unknown
18:49 60.8 °F 35.6 °F 30.2 in WSW 1.2 mph 1.2 mph 40% 0 in 0.00 W/m2 unknown
18:54 60.8 °F 37.4 °F 30.2 in Calm   1.2 mph 43% 0 in 0.00 W/m2 unknown
18:59 60.8 °F 35.6 °F 30.2 in Calm     41% 0 in 0.00 W/m2 unknown
19:04 59 °F 33.8 °F 30.2 in Calm     39% 0 in 0.00 W/m2 unknown
19:09 59 °F 33.8 °F 30.2 in Calm     40% 0 in 0.00 W/m2 unknown
19:14 59 °F 33.8 °F 30.2 in Calm     40% 0 in 0.00 W/m2 unknown
19:19 59 °F 35.6 °F 30.2 in Calm     42% 0 in 0.00 W/m2 unknown
19:24 59 °F 35.6 °F 30.2 in Calm     41% 0 in 0.00 W/m2 unknown
19:29 57.2 °F 33.8 °F 30.2 in Calm     40% 0 in 0.00 W/m2 unknown
19:34 57.2 °F 33.8 °F 30.2 in Calm     41% 0 in 0.00 W/m2 unknown
19:39 57.2 °F 33.8 °F 30.2 in Calm     41% 0 in 0.00 W/m2 unknown
19:44 57.2 °F 33.8 °F 30.2 in Calm     43% 0 in 0.00 W/m2 unknown
19:49 55.4 °F 33.8 °F 30.2 in Calm     42% 0 in 0.00 W/m2 unknown
19:54 55.4 °F 33.8 °F 30.2 in Calm     43% 0 in 0.00 W/m2 unknown
19:59 55.4 °F 33.8 °F 30.2 in Calm     44% 0 in 0.00 W/m2 unknown
20:04 55.4 °F 32 °F 30.2 in Calm     44% 0 in 0.00 W/m2 unknown
20:09 53.6 °F 33.8 °F 30.2 in Calm     45% 0 in 0.00 W/m2 unknown
20:14 53.6 °F 33.8 °F 30.2 in Calm     46% 0 in 0.00 W/m2 unknown
20:19 53.6 °F 32 °F 30.2 in Calm     45% 0 in 0.00 W/m2 unknown
20:24 53.6 °F 33.8 °F 30.2 in Calm     46% 0 in 0.00 W/m2 unknown
20:29 53.6 °F 33.8 °F 30.2 in Calm     46% 0 in 0.00 W/m2 unknown
20:34 53.6 °F 32 °F 30.2 in Calm     46% 0 in 0.00 W/m2 unknown
20:39 53.6 °F 32 °F 30.2 in Calm     46% 0 in 0.00 W/m2 unknown
20:44 53.6 °F 32 °F 30.2 in Calm     46% 0 in 0.00 W/m2 unknown
20:49 51.8 °F 32 °F 30.2 in Calm     47% 0 in 0.00 W/m2 unknown
20:54 51.8 °F 33.8 °F 30.2 in Calm     48% 0 in 0.00 W/m2 unknown
20:59 53.6 °F 33.8 °F 30.2 in Calm     49% 0 in 0.00 W/m2 unknown
21:04 51.8 °F 33.8 °F 30.2 in Calm     49% 0 in 0.00 W/m2 unknown
21:09 51.8 °F 33.8 °F 30.2 in Calm     49% 0 in 0.00 W/m2 unknown
21:14 51.8 °F 35.6 °F 30.2 in Calm     56% 0 in 0.00 W/m2 unknown
21:19 51.8 °F 35.6 °F 30.2 in Calm     56% 0 in 0.00 W/m2 unknown
21:24 50 °F 33.8 °F 30.2 in Calm     54% 0 in 0.00 W/m2 unknown
21:29 50 °F 35.6 °F 30.2 in Calm     55% 0 in 0.00 W/m2 unknown
21:34 50 °F 35.6 °F 30.2 in Calm     55% 0 in 0.00 W/m2 unknown
21:39 50 °F 35.6 °F 30.2 in Calm     55% 0 in 0.00 W/m2 unknown
21:44 50 °F 35.6 °F 30.2 in Calm     56% 0 in 0.00 W/m2 unknown
21:49 50 °F 35.6 °F 30.2 in Calm     56% 0 in 0.00 W/m2 unknown
21:54 50 °F 33.8 °F 30.2 in Calm     55% 0 in 0.00 W/m2 unknown
21:59 50 °F 33.8 °F 30.3 in Calm     55% 0 in 0.00 W/m2 unknown
22:04 50 °F 33.8 °F 30.3 in Calm     56% 0 in 0.00 W/m2 unknown
22:09 50 °F 33.8 °F 30.3 in Calm     56% 0 in 0.00 W/m2 unknown
22:14 50 °F 33.8 °F 30.3 in Calm     54% 0 in 0.00 W/m2 unknown
22:19 48.2 °F 32 °F 30.3 in Calm     52% 0 in 0.00 W/m2 unknown
22:24 48.2 °F 32 °F 30.3 in SW 4.3 mph 6.2 mph 53% 0 in 0.00 W/m2 unknown
22:29 48.2 °F 32 °F 30.3 in SW 3.1 mph 6.2 mph 52% 0 in 0.00 W/m2 unknown
22:34 48.2 °F 32 °F 30.3 in SW 2.5 mph 3.7 mph 52% 0 in 0.00 W/m2 unknown
22:39 48.2 °F 32 °F 30.3 in SW 2.5 mph 3.7 mph 53% 0 in 0.00 W/m2 unknown
22:44 48.2 °F 32 °F 30.3 in SW 0.6 mph 3.1 mph 54% 0 in 0.00 W/m2 unknown
22:49 48.2 °F 32 °F 30.3 in SW 0.6 mph 1.2 mph 54% 0 in 0.00 W/m2 unknown
22:54 48.2 °F 33.8 °F 30.3 in ESE 2.5 mph 3.1 mph 55% 0 in 0.00 W/m2 unknown
22:59 48.2 °F 35.6 °F 30.3 in ENE 8.1 mph 13 mph 63% 0 in 0.00 W/m2 unknown
23:04 48.2 °F 35.6 °F 30.3 in ENE 3.1 mph 13 mph 65% 0 in 0.00 W/m2 unknown
23:09 48.2 °F 35.6 °F 30.3 in East 3.1 mph 5 mph 66% 0 in 0.00 W/m2 unknown
23:14 46.4 °F 35.6 °F 30.3 in SSW 2.5 mph 5 mph 67% 0 in 0.00 W/m2 unknown
23:19 46.4 °F 35.6 °F 30.3 in SSW 1.9 mph 3.7 mph 66% 0 in 0.00 W/m2 unknown
23:24 46.4 °F 35.6 °F 30.3 in East 2.5 mph 3.7 mph 66% 0 in 0.00 W/m2 unknown
23:29 46.4 °F 35.6 °F 30.3 in East 1.9 mph 2.5 mph 65% 0 in 0.00 W/m2 unknown
23:34 46.4 °F 35.6 °F 30.3 in East 1.2 mph 2.5 mph 64% 0 in 0.00 W/m2 unknown
23:39 46.4 °F 35.6 °F 30.3 in East 1.2 mph 1.9 mph 64% 0 in 0.00 W/m2 unknown
23:44 46.4 °F 35.6 °F 30.3 in East 1.2 mph 1.2 mph 65% 0 in 0.00 W/m2 unknown
23:49 46.4 °F 35.6 °F 30.3 in East 1.2 mph 1.2 mph 65% 0 in 0.00 W/m2 unknown
23:54 46.4 °F 35.6 °F 30.3 in East 1.2 mph 1.9 mph 65% 0 in 0.00 W/m2 unknown
23:59 46.4 °F 35.6 °F 30.3 in East 2.5 mph 3.7 mph 65% 0 in 0.00 W/m2 unknown
Stazione Meteorologica MeteoMincio Rivalta s/M (MN)
Con i complimenti di Weather Underground - 4 mb



METEO PILLOLE
La più grave siccità negli USA
Grandi pianure:
Dal 1930 al 1938 l'erosione favorita dalle pratiche agricole, i forti venti e l'assenza di precipitazioni convertirono in polvere circa 200.000 Km quadrati di terreno coltivabile.
Share

Non seguire questo link o sarai bannato dal sito!